Terminal Aerodrome Forecast
Issued by NWS

Home | Current Version | Previous Version | Graphics & Text | Print | Product List | Glossary On
Versions: 1 2 3 4 5 6 7 8 9 10 11 12 13 14 15 16 17 18 19 20 21 22 23 24 25 26 27 28 29 30 31 32 33
385
FTUS43 KABR 101352 AAA
TAFPIR
TAF AMD
KPIR 101352Z 1014/1112 08010KT 6SM -SN OVC035
     FM101700 10014KT 1SM BLSN OVC010
     FM101900 10015KT 3SM BLSN OVC010
     FM102100 10015KT P6SM OVC008
     FM110900 02008KT P6SM OVC003=

USA.gov is the U.S. government's official web portal to all federal, state and local government web resources and services.